Time;durP1;ratioP1;P1;durP2;ratioP2;P2;SDS_P1;SDS_P2;PMS_P1;PMS_P2;Temp;Humidity;BMP_temperature;BMP_pressure;BME280_temperature;BME280_humidity;BME280_pressure;Samples;Min_cycle;Max_cycle;Signal;HPM_P1;HPM_P2
2022/07/28 00:00:47;;;;;;;3.00;1.40;;;17.30;87.50;;;;;;5036283;28;20234;-71
2022/07/28 00:03:14;;;;;;;2.20;1.53;;;17.30;87.50;;;;;;5035066;28;20210;-70
2022/07/28 00:05:41;;;;;;;4.27;1.50;;;17.20;87.60;;;;;;5036322;28;20194;-70
2022/07/28 00:08:09;;;;;;;4.33;1.73;;;17.10;87.90;;;;;;5033119;28;20207;-70
2022/07/28 00:10:37;;;;;;;3.83;1.37;;;17.10;88.30;;;;;;5032962;28;20202;-70
2022/07/28 00:13:04;;;;;;;1.90;1.53;;;17.10;88.50;;;;;;5033518;28;20664;-70
2022/07/28 00:15:30;;;;;;;4.03;1.30;;;17.10;88.80;;;;;;5031804;28;20217;-70
2022/07/28 00:17:57;;;;;;;4.13;1.98;;;17.00;89.00;;;;;;5037394;28;20572;-71
2022/07/28 00:20:25;;;;;;;3.07;1.40;;;17.00;89.40;;;;;;5034795;28;20561;-70
2022/07/28 00:22:52;;;;;;;2.57;1.70;;;16.90;89.70;;;;;;5035353;28;20214;-70
2022/07/28 00:25:19;;;;;;;2.95;1.70;;;17.00;90.00;;;;;;5036080;28;20226;-70
2022/07/28 00:27:47;;;;;;;6.65;1.52;;;17.00;90.10;;;;;;5034844;28;20609;-71
2022/07/28 00:30:14;;;;;;;3.43;1.37;;;17.00;90.20;;;;;;5035739;28;20663;-71
2022/07/28 00:32:40;;;;;;;3.50;1.43;;;17.00;90.30;;;;;;5035769;28;20305;-70
2022/07/28 00:35:08;;;;;;;1.95;1.42;;;16.90;90.30;;;;;;5035380;28;20241;-71
2022/07/28 00:37:35;;;;;;;7.00;1.45;;;16.90;90.50;;;;;;5027662;28;20212;-71
2022/07/28 00:40:02;;;;;;;2.90;1.53;;;16.90;90.70;;;;;;5035211;28;20222;-72
2022/07/28 00:42:28;;;;;;;3.23;1.40;;;16.90;90.90;;;;;;5034516;28;20206;-71
2022/07/28 00:44:57;;;;;;;3.43;1.30;;;16.90;90.90;;;;;;5036246;28;20207;-71
2022/07/28 00:47:23;;;;;;;2.63;1.37;;;16.90;90.90;;;;;;5035613;28;20203;-71
2022/07/28 00:49:50;;;;;;;2.23;1.27;;;16.90;91.00;;;;;;5033402;28;20220;-71
2022/07/28 00:52:18;;;;;;;2.07;1.40;;;16.80;91.20;;;;;;5032184;28;20202;-71
2022/07/28 00:54:45;;;;;;;2.37;1.17;;;16.80;91.30;;;;;;5034189;28;20238;-71
2022/07/28 00:57:11;;;;;;;3.87;1.50;;;16.70;91.40;;;;;;5035311;28;20656;-71
2022/07/28 00:59:38;;;;;;;5.57;1.50;;;16.80;91.50;;;;;;5034259;28;20210;-71
2022/07/28 01:02:06;;;;;;;5.00;1.30;;;16.80;91.50;;;;;;5033655;28;20230;-69
2022/07/28 01:04:33;;;;;;;2.13;1.33;;;16.80;91.60;;;;;;5034467;28;20234;-70
2022/07/28 01:07:23;;;;;;;3.60;1.43;;;16.80;91.70;;;;;;5034201;28;20233;-70
2022/07/28 01:10:01;;;;;;;5.37;1.80;;;16.80;91.80;;;;;;5032315;28;20206;-69
2022/07/28 01:12:40;;;;;;;6.23;2.10;;;16.80;91.90;;;;;;5034881;28;20575;-69
2022/07/28 01:15:19;;;;;;;3.87;1.50;;;16.70;91.90;;;;;;5035121;28;20210;-69
2022/07/28 01:17:54;;;;;;;3.63;1.20;;;16.70;92.00;;;;;;5032825;28;20216;-70
2022/07/28 01:20:25;;;;;;;3.72;1.83;;;16.70;92.00;;;;;;5033973;28;20214;-69
2022/07/28 01:23:17;;;;;;;4.17;1.50;;;16.70;92.10;;;;;;5035328;28;20222;-69
2022/07/28 01:25:53;;;;;;;3.77;1.97;;;16.70;92.40;;;;;;5035235;28;20226;-69
2022/07/28 01:28:26;;;;;;;7.60;2.03;;;16.70;92.20;;;;;;5034476;28;20221;-69
2022/07/28 01:30:57;;;;;;;4.17;2.03;;;16.60;92.30;;;;;;5035327;28;20213;-69
2022/07/28 01:33:29;;;;;;;6.50;1.93;;;16.50;92.40;;;;;;5033789;28;20207;-70
2022/07/28 01:36:08;;;;;;;3.57;1.57;;;16.50;92.60;;;;;;5035617;28;20655;-68
2022/07/28 01:38:36;;;;;;;10.37;1.80;;;16.50;92.70;;;;;;5033782;28;20203;-69
2022/07/28 01:41:05;;;;;;;3.60;1.93;;;16.50;92.90;;;;;;5035066;28;20230;-69
2022/07/28 01:43:36;;;;;;;4.17;2.00;;;16.40;92.90;;;;;;5034165;28;20590;-69
2022/07/28 01:46:06;;;;;;;4.00;1.90;;;16.40;93.00;;;;;;5033658;28;20210;-69
2022/07/28 01:48:34;;;;;;;3.43;1.97;;;16.40;93.20;;;;;;5033159;28;20207;-68
2022/07/28 01:51:01;;;;;;;2.87;1.67;;;16.40;93.20;;;;;;5034653;28;20218;-69
2022/07/28 01:53:31;;;;;;;8.67;2.17;;;16.40;93.20;;;;;;5035086;28;20206;-68
2022/07/28 01:55:59;;;;;;;3.20;1.80;;;16.30;93.30;;;;;;5034347;28;20230;-68
2022/07/28 01:58:28;;;;;;;2.50;1.73;;;16.30;93.50;;;;;;5024077;28;20222;-69
2022/07/28 02:00:56;;;;;;;2.80;1.80;;;16.30;93.60;;;;;;5035464;28;20238;-67
2022/07/28 02:03:28;;;;;;;4.27;1.90;;;16.30;93.70;;;;;;5034113;28;20685;-68
2022/07/28 02:05:56;;;;;;;3.73;1.90;;;16.30;93.90;;;;;;5035281;28;20683;-69
2022/07/28 02:08:24;;;;;;;2.73;1.83;;;16.20;93.90;;;;;;5032792;28;20203;-68
2022/07/28 02:13:39;;;;;;;4.00;1.90;;;16.10;94.20;;;;;;5033039;28;20214;-69
2022/07/28 02:16:10;;;;;;;3.47;2.13;;;16.10;94.30;;;;;;5034030;28;20306;-69
2022/07/28 02:18:39;;;;;;;4.60;2.20;;;16.10;94.60;;;;;;5034939;28;20238;-70
2022/07/28 02:21:07;;;;;;;3.37;1.93;;;16.10;94.70;;;;;;5031482;28;20687;-69
2022/07/28 02:23:35;;;;;;;4.67;2.07;;;16.10;94.70;;;;;;5034433;28;20218;-68
2022/07/28 02:26:06;;;;;;;4.70;2.40;;;16.00;94.70;;;;;;5034576;28;20226;-69
2022/07/28 02:28:34;;;;;;;3.00;2.23;;;16.00;94.90;;;;;;5033672;28;20236;-69
2022/07/28 02:31:06;;;;;;;4.00;2.13;;;15.90;94.80;;;;;;5024811;28;20250;-69
2022/07/28 02:33:34;;;;;;;7.90;2.33;;;15.90;95.20;;;;;;5034660;28;20218;-70
2022/07/28 02:36:09;;;;;;;6.80;2.70;;;15.90;95.30;;;;;;5033650;28;20214;-69
2022/07/28 02:38:41;;;;;;;4.63;2.00;;;15.80;95.40;;;;;;5033952;28;20337;-69
2022/07/28 02:41:13;;;;;;;3.00;2.20;;;15.80;95.70;;;;;;5032800;28;20222;-69
2022/07/28 02:43:44;;;;;;;8.40;2.10;;;15.80;96.00;;;;;;5024535;28;20206;-68
2022/07/28 02:46:16;;;;;;;6.27;2.53;;;15.70;96.00;;;;;;5034127;28;20213;-69
2022/07/28 02:48:49;;;;;;;5.27;2.10;;;15.70;96.20;;;;;;5035037;28;20202;-69
2022/07/28 02:51:18;;;;;;;5.50;2.50;;;15.80;96.50;;;;;;5033717;28;20297;-69
2022/07/28 02:53:45;;;;;;;4.17;2.20;;;15.70;96.50;;;;;;5033125;28;20238;-70
2022/07/28 02:56:15;;;;;;;4.93;2.67;;;15.70;96.50;;;;;;5032322;28;20200;-69
2022/07/28 02:58:42;;;;;;;4.67;2.00;;;15.70;96.60;;;;;;5034331;28;20670;-69
2022/07/28 03:01:09;;;;;;;4.33;2.30;;;15.70;96.80;;;;;;5033980;28;20222;-69
2022/07/28 03:03:37;;;;;;;3.23;2.10;;;15.70;96.70;;;;;;5033383;28;20226;-70
2022/07/28 03:06:04;;;;;;;5.50;2.50;;;15.70;96.70;;;;;;5034034;28;20211;-70
2022/07/28 03:08:32;;;;;;;5.30;2.40;;;15.70;96.90;;;;;;5033663;28;20215;-69
2022/07/28 03:11:09;;;;;;;6.57;2.50;;;15.70;96.90;;;;;;5029657;28;20570;-69
2022/07/28 03:13:36;;;;;;;7.70;2.70;;;15.70;96.90;;;;;;5033155;28;20217;-69
2022/07/28 03:16:03;;;;;;;3.20;2.37;;;15.70;96.90;;;;;;5033324;28;20647;-70
2022/07/28 03:18:30;;;;;;;7.33;2.50;;;15.70;97.00;;;;;;5034296;28;20214;-71
2022/07/28 03:20:57;;;;;;;6.93;3.37;;;15.70;96.90;;;;;;5034314;28;20230;-70
2022/07/28 03:23:29;;;;;;;5.23;2.60;;;15.70;97.00;;;;;;5038836;28;20206;-70
2022/07/28 03:26:04;;;;;;;5.73;2.07;;;15.70;97.20;;;;;;5036001;28;20586;-69
2022/07/28 03:28:33;;;;;;;6.70;2.70;;;15.70;97.40;;;;;;5038141;28;20213;-70
2022/07/28 03:31:05;;;;;;;3.50;2.40;;;15.70;97.50;;;;;;5037827;28;20199;-69
2022/07/28 03:33:32;;;;;;;3.83;2.67;;;15.80;97.60;;;;;;5037744;28;20203;-69
2022/07/28 03:36:02;;;;;;;4.57;2.50;;;15.80;97.70;;;;;;5036218;28;20215;-69
2022/07/28 03:38:36;;;;;;;6.00;2.60;;;15.90;97.80;;;;;;5037284;28;20209;-68
2022/07/28 03:41:08;;;;;;;6.60;2.73;;;16.00;97.80;;;;;;5034443;28;20214;-69
2022/07/28 03:43:35;;;;;;;5.03;2.60;;;16.00;97.60;;;;;;5036540;28;20576;-69
2022/07/28 03:46:02;;;;;;;4.57;2.83;;;16.10;97.40;;;;;;5037518;28;20207;-68
2022/07/28 03:48:30;;;;;;;11.33;2.60;;;16.10;97.40;;;;;;5037193;28;20202;-68
2022/07/28 03:50:57;;;;;;;6.70;2.47;;;16.10;97.20;;;;;;5037681;28;20234;-69
2022/07/28 03:53:27;;;;;;;9.57;2.60;;;16.20;97.40;;;;;;5028759;28;20203;-68
2022/07/28 03:55:54;;;;;;;4.50;2.60;;;16.30;97.40;;;;;;5034935;28;20213;-70
2022/07/28 03:58:24;;;;;;;6.57;2.70;;;16.40;97.30;;;;;;5037521;28;20206;-69
2022/07/28 04:00:51;;;;;;;5.73;2.53;;;16.40;97.20;;;;;;5037730;28;20218;-70
2022/07/28 04:03:19;;;;;;;3.50;2.50;;;16.50;97.10;;;;;;5035628;28;20203;-68
2022/07/28 04:05:46;;;;;;;5.13;2.57;;;16.60;97.00;;;;;;5036644;28;20215;-69
2022/07/28 04:08:13;;;;;;;7.50;3.60;;;16.60;96.90;;;;;;5037217;28;20206;-69
2022/07/28 04:10:40;;;;;;;6.43;3.03;;;16.60;96.90;;;;;;5035245;28;20214;-69
2022/07/28 04:13:07;;;;;;;8.77;3.13;;;16.70;96.90;;;;;;5034870;28;20588;-68
2022/07/28 04:15:35;;;;;;;5.33;2.60;;;16.70;96.90;;;;;;5036446;28;20206;-69
2022/07/28 04:18:02;;;;;;;4.10;2.57;;;16.80;96.90;;;;;;5027938;28;20219;-68
2022/07/28 04:20:29;;;;;;;5.13;2.80;;;16.80;97.00;;;;;;5032062;28;20655;-69
2022/07/28 04:22:57;;;;;;;6.53;3.33;;;16.80;96.90;;;;;;5036245;28;20235;-70
2022/07/28 04:25:26;;;;;;;6.53;2.87;;;16.90;96.90;;;;;;5034345;28;20238;-69
2022/07/28 04:27:54;;;;;;;5.67;2.77;;;16.90;96.80;;;;;;5036185;28;20206;-69
2022/07/28 04:30:23;;;;;;;8.77;2.90;;;17.00;97.00;;;;;;5035188;28;20217;-69
2022/07/28 04:32:53;;;;;;;5.07;2.27;;;17.00;97.00;;;;;;5034625;28;20222;-69
2022/07/28 04:35:22;;;;;;;4.53;2.70;;;17.00;96.90;;;;;;5036149;28;20210;-69
2022/07/28 04:37:50;;;;;;;5.73;2.93;;;17.10;96.90;;;;;;5036542;28;20203;-68
2022/07/28 04:40:17;;;;;;;8.17;3.00;;;17.10;96.70;;;;;;5035574;28;20202;-69
2022/07/28 04:42:44;;;;;;;3.83;3.00;;;17.20;96.80;;;;;;5036573;28;20230;-69
2022/07/28 04:45:12;;;;;;;4.70;3.00;;;17.20;96.90;;;;;;5034364;28;20206;-69
2022/07/28 04:47:39;;;;;;;5.43;2.60;;;17.30;96.90;;;;;;5034295;28;20217;-70
2022/07/28 04:50:09;;;;;;;5.07;2.53;;;17.30;96.90;;;;;;5035787;28;20218;-69
2022/07/28 04:52:37;;;;;;;6.72;2.72;;;17.40;96.80;;;;;;5036296;28;20224;-68
2022/07/28 04:55:04;;;;;;;3.60;2.60;;;17.40;96.70;;;;;;5032415;28;20683;-69
2022/07/28 04:57:31;;;;;;;4.37;2.43;;;17.50;96.60;;;;;;5036368;28;20214;-69
2022/07/28 04:59:59;;;;;;;5.63;2.97;;;17.50;96.50;;;;;;5035649;28;20224;-69
2022/07/28 05:02:26;;;;;;;5.27;3.37;;;17.60;96.60;;;;;;5033602;28;20226;-69
2022/07/28 05:04:53;;;;;;;4.50;2.60;;;17.70;96.60;;;;;;5033664;28;20210;-68
2022/07/28 05:07:22;;;;;;;2.93;2.57;;;17.70;96.60;;;;;;5034716;28;20582;-69
2022/07/28 05:09:48;;;;;;;5.68;3.00;;;17.80;96.60;;;;;;5034520;28;20329;-70
2022/07/28 05:12:15;;;;;;;5.50;3.43;;;17.90;96.50;;;;;;5034187;28;20506;-72
2022/07/28 05:14:42;;;;;;;6.10;3.00;;;17.90;96.40;;;;;;5033210;28;20599;-70
2022/07/28 05:17:09;;;;;;;6.72;2.63;;;17.90;96.40;;;;;;5032280;28;20239;-71
2022/07/28 05:19:35;;;;;;;7.97;3.20;;;17.90;96.50;;;;;;5033520;28;20213;-71
2022/07/28 05:22:03;;;;;;;8.30;3.33;;;18.00;96.60;;;;;;5032466;28;20226;-72
2022/07/28 05:24:31;;;;;;;5.18;2.67;;;18.10;96.50;;;;;;5022782;28;20225;-71
2022/07/28 05:26:59;;;;;;;8.53;3.50;;;18.10;96.20;;;;;;5031839;28;20234;-71
2022/07/28 05:29:25;;;;;;;5.00;3.13;;;18.10;96.00;;;;;;5035181;28;20202;-72
2022/07/28 05:31:53;;;;;;;7.63;2.65;;;18.10;95.70;;;;;;5034465;28;20222;-71
2022/07/28 05:34:20;;;;;;;7.10;2.60;;;18.20;95.70;;;;;;5028731;28;20711;-70
2022/07/28 05:36:47;;;;;;;3.83;2.63;;;18.30;95.70;;;;;;5034442;28;20242;-70
2022/07/28 05:39:14;;;;;;;8.38;3.10;;;18.30;95.40;;;;;;5032525;28;20209;-71
2022/07/28 05:41:42;;;;;;;5.20;2.30;;;18.40;95.10;;;;;;5034925;28;20218;-70
2022/07/28 05:44:09;;;;;;;4.50;2.38;;;18.50;95.10;;;;;;5034337;28;20218;-71
2022/07/28 05:46:36;;;;;;;3.72;2.40;;;18.60;94.80;;;;;;5031643;28;20659;-70
2022/07/28 05:49:04;;;;;;;6.25;2.30;;;18.70;94.70;;;;;;5024329;28;20206;-69
2022/07/28 05:51:31;;;;;;;6.75;2.75;;;18.70;94.60;;;;;;5029855;28;20228;-71
2022/07/28 05:53:58;;;;;;;8.15;3.03;;;18.70;94.20;;;;;;5028262;28;20740;-71
2022/07/28 05:56:24;;;;;;;6.43;2.15;;;18.90;94.10;;;;;;5034180;28;20644;-72
2022/07/28 05:58:52;;;;;;;4.30;1.80;;;18.90;93.70;;;;;;5027910;28;20202;-71
2022/07/28 06:01:19;;;;;;;6.45;2.33;;;19.00;93.00;;;;;;5032248;28;20190;-71
2022/07/28 06:03:48;;;;;;;4.53;1.88;;;19.00;92.30;;;;;;5028064;28;20237;-70
2022/07/28 06:06:14;;;;;;;4.95;2.08;;;19.10;92.20;;;;;;5032718;28;20206;-71
2022/07/28 06:08:41;;;;;;;3.40;2.13;;;19.10;92.00;;;;;;5028877;28;20202;-70
2022/07/28 06:11:10;;;;;;;4.10;2.25;;;19.20;91.60;;;;;;5032238;28;20297;-72
2022/07/28 06:13:37;;;;;;;5.43;1.83;;;19.20;91.10;;;;;;5031508;28;20579;-70
2022/07/28 06:16:07;;;;;;;5.03;1.90;;;19.20;90.80;;;;;;5032346;28;20616;-71
2022/07/28 06:18:34;;;;;;;6.47;2.08;;;19.20;90.60;;;;;;5034213;28;20714;-71
2022/07/28 06:21:01;;;;;;;5.55;1.80;;;19.20;90.60;;;;;;5033488;28;20213;-70
2022/07/28 06:23:27;;;;;;;4.78;1.88;;;19.20;90.70;;;;;;5032790;28;20219;-70
2022/07/28 06:25:54;;;;;;;1.83;1.40;;;19.20;90.80;;;;;;5033404;28;20222;-70
2022/07/28 06:28:21;;;;;;;1.95;1.50;;;19.30;90.60;;;;;;5034739;28;20282;-71
2022/07/28 06:30:48;;;;;;;4.15;2.03;;;19.30;90.20;;;;;;5026190;28;20218;-69
2022/07/28 06:33:17;;;;;;;3.47;1.50;;;19.40;90.20;;;;;;5029140;28;20214;-69
2022/07/28 06:35:45;;;;;;;3.42;1.63;;;19.40;90.30;;;;;;5033010;28;20233;-70
2022/07/28 06:38:12;;;;;;;4.15;1.40;;;19.50;89.40;;;;;;5031557;28;20721;-67
2022/07/28 06:40:39;;;;;;;2.33;1.50;;;19.50;87.80;;;;;;5031385;28;20238;-70
2022/07/28 06:43:07;;;;;;;3.78;1.70;;;19.60;87.30;;;;;;5028645;28;20218;-70
2022/07/28 06:45:34;;;;;;;7.47;1.98;;;19.60;87.30;;;;;;5032330;28;20310;-71
2022/07/28 06:48:00;;;;;;;2.15;1.48;;;19.70;87.90;;;;;;5031786;28;20208;-70
2022/07/28 06:50:29;;;;;;;3.42;1.40;;;19.70;86.90;;;;;;5032593;28;20310;-71
2022/07/28 06:52:57;;;;;;;1.70;1.30;;;19.80;86.60;;;;;;5031920;28;20217;-67
2022/07/28 06:55:24;;;;;;;5.13;1.38;;;19.80;86.00;;;;;;5021379;28;20242;-69
2022/07/28 06:57:51;;;;;;;4.13;1.33;;;19.80;85.10;;;;;;5029984;28;20213;-70
2022/07/28 07:00:18;;;;;;;3.10;1.50;;;19.80;84.90;;;;;;5035299;28;20209;-69
2022/07/28 07:02:45;;;;;;;4.05;1.52;;;19.80;85.10;;;;;;5027857;28;20241;-71
2022/07/28 07:05:12;;;;;;;3.75;1.65;;;19.90;85.20;;;;;;5031473;28;20203;-70
2022/07/28 07:07:41;;;;;;;4.03;2.00;;;19.90;84.60;;;;;;5036520;28;20232;-70
2022/07/28 07:10:08;;;;;;;3.65;1.17;;;19.90;84.80;;;;;;5036274;28;20211;-71
2022/07/28 07:12:35;;;;;;;2.75;1.60;;;20.00;84.50;;;;;;5036946;28;20199;-70
2022/07/28 07:15:03;;;;;;;3.85;1.33;;;20.00;84.60;;;;;;5023798;28;20214;-70
2022/07/28 07:17:30;;;;;;;2.20;1.30;;;20.10;84.50;;;;;;5034167;28;20210;-70
2022/07/28 07:19:57;;;;;;;3.30;1.63;;;20.10;84.30;;;;;;5036317;28;20510;-70
2022/07/28 07:22:24;;;;;;;2.75;1.67;;;20.20;84.20;;;;;;5035126;28;20238;-69
2022/07/28 07:24:52;;;;;;;2.38;1.25;;;20.30;84.40;;;;;;5034542;28;20305;-71
2022/07/28 07:27:19;;;;;;;3.65;1.77;;;20.30;84.30;;;;;;5036245;28;20222;-71
2022/07/28 07:29:46;;;;;;;3.03;1.27;;;20.40;84.40;;;;;;5026667;28;20215;-71
2022/07/28 07:32:13;;;;;;;4.88;2.88;;;20.50;84.40;;;;;;5030310;28;20214;-72
2022/07/28 07:34:39;;;;;;;3.40;1.27;;;20.60;84.60;;;;;;5035868;28;20579;-71
2022/07/28 07:37:12;;;;;;;3.38;1.83;;;20.60;84.40;;;;;;5035986;28;20234;-71
2022/07/28 07:39:39;;;;;;;3.97;1.77;;;20.70;84.40;;;;;;5035108;28;20222;-71
2022/07/28 07:42:08;;;;;;;1.83;1.42;;;20.70;83.50;;;;;;5035910;28;20215;-71
2022/07/28 07:44:35;;;;;;;4.05;1.45;;;20.80;83.60;;;;;;5032911;28;20217;-72
2022/07/28 07:47:01;;;;;;;3.28;1.30;;;20.80;83.00;;;;;;5036891;28;20226;-71
2022/07/28 07:49:28;;;;;;;5.43;1.50;;;20.90;82.50;;;;;;5036015;28;20206;-71
2022/07/28 07:51:55;;;;;;;2.35;1.30;;;21.10;83.40;;;;;;5036179;28;20211;-71
2022/07/28 07:54:22;;;;;;;2.65;1.50;;;21.10;82.60;;;;;;5035201;28;20603;-71
2022/07/28 07:56:48;;;;;;;2.67;1.35;;;21.20;82.80;;;;;;5035699;28;20202;-71
2022/07/28 07:59:16;;;;;;;4.80;1.70;;;21.40;82.00;;;;;;5031300;28;20244;-70
2022/07/28 08:01:43;;;;;;;3.95;1.42;;;21.50;81.70;;;;;;5032087;28;20671;-69
2022/07/28 08:04:10;;;;;;;3.65;1.58;;;21.60;81.80;;;;;;5034286;28;20234;-70
2022/07/28 08:06:37;;;;;;;3.20;1.50;;;21.70;80.80;;;;;;5035326;28;20210;-71
2022/07/28 08:09:04;;;;;;;5.20;1.85;;;21.70;80.50;;;;;;5033945;28;20207;-71
2022/07/28 08:11:30;;;;;;;2.97;1.40;;;21.80;80.60;;;;;;5034074;28;20221;-70
2022/07/28 08:13:57;;;;;;;2.00;1.20;;;21.80;80.60;;;;;;5034882;28;20210;-70
2022/07/28 08:16:26;;;;;;;2.33;1.45;;;22.00;80.40;;;;;;5034628;28;20206;-70
2022/07/28 08:18:57;;;;;;;3.70;1.70;;;22.10;80.30;;;;;;5030534;28;20723;-70
2022/07/28 08:21:24;;;;;;;4.60;1.67;;;22.30;79.50;;;;;;5031480;28;20199;-72
2022/07/28 08:23:50;;;;;;;3.42;1.55;;;22.50;79.00;;;;;;5035440;28;20234;-71
2022/07/28 08:26:17;;;;;;;4.85;1.50;;;22.70;78.10;;;;;;5028843;28;20610;-70
2022/07/28 08:28:44;;;;;;;2.95;1.85;;;22.90;77.90;;;;;;5035551;28;20210;-70
2022/07/28 08:31:11;;;;;;;3.92;1.50;;;23.00;76.50;;;;;;5031740;28;20211;-71
2022/07/28 08:33:39;;;;;;;3.20;1.50;;;23.10;76.10;;;;;;5026748;28;20203;-70
2022/07/28 08:36:06;;;;;;;4.57;3.08;;;23.20;75.70;;;;;;5034735;28;20213;-71
2022/07/28 08:38:32;;;;;;;4.70;1.88;;;23.30;75.80;;;;;;5031755;28;20218;-71
2022/07/28 08:41:03;;;;;;;4.38;1.35;;;23.30;75.10;;;;;;5034251;28;20199;-71
2022/07/28 08:43:33;;;;;;;3.55;2.00;;;23.20;74.40;;;;;;5034842;28;20264;-70
2022/07/28 08:46:01;;;;;;;3.95;1.90;;;23.20;74.50;;;;;;5034665;28;20207;-70
2022/07/28 08:48:30;;;;;;;1.88;1.48;;;23.10;75.60;;;;;;5031734;28;20686;-71
2022/07/28 08:51:02;;;;;;;3.95;1.30;;;23.20;75.90;;;;;;5032770;28;20214;-70
2022/07/28 08:53:31;;;;;;;3.75;1.55;;;23.30;75.80;;;;;;5034358;28;20678;-71
2022/07/28 08:56:03;;;;;;;1.42;1.27;;;23.30;75.70;;;;;;5033875;28;20218;-70
2022/07/28 08:58:32;;;;;;;4.90;1.33;;;23.40;73.70;;;;;;5034456;28;20222;-70
2022/07/28 09:00:59;;;;;;;7.88;1.90;;;23.40;74.00;;;;;;5026632;28;20589;-70
2022/07/28 09:03:26;;;;;;;3.25;1.92;;;23.40;74.30;;;;;;5027019;28;20235;-70
2022/07/28 09:05:54;;;;;;;4.10;1.20;;;23.60;74.80;;;;;;5030032;28;20705;-71
2022/07/28 09:08:22;;;;;;;4.40;2.00;;;23.60;72.90;;;;;;5033767;28;20215;-70
2022/07/28 09:10:50;;;;;;;2.92;1.48;;;23.70;72.80;;;;;;5033878;28;20207;-71
2022/07/28 09:13:17;;;;;;;3.95;1.30;;;23.70;72.70;;;;;;5033763;28;20348;-71
2022/07/28 09:15:45;;;;;;;2.90;1.40;;;23.90;72.20;;;;;;5030973;28;20206;-72
2022/07/28 09:18:12;;;;;;;3.58;1.80;;;24.00;72.10;;;;;;5030367;28;20203;-71
2022/07/28 09:20:40;;;;;;;2.88;1.40;;;24.20;71.40;;;;;;5032520;28;20211;-71
2022/07/28 09:23:08;;;;;;;2.15;1.45;;;24.30;70.40;;;;;;5034159;28;20619;-71
2022/07/28 09:25:36;;;;;;;3.85;1.40;;;24.50;70.70;;;;;;5034237;28;20223;-71
2022/07/28 09:28:08;;;;;;;2.33;1.20;;;24.60;69.80;;;;;;5032952;28;20224;-71
2022/07/28 09:30:37;;;;;;;5.05;1.40;;;24.80;70.10;;;;;;5032152;28;20213;-71
2022/07/28 09:33:15;;;;;;;2.25;1.13;;;24.90;69.60;;;;;;5032717;28;20222;-71
2022/07/28 09:35:44;;;;;;;3.30;1.00;;;24.90;68.80;;;;;;5034202;28;20393;-71
2022/07/28 09:38:12;;;;;;;3.55;1.52;;;25.00;66.70;;;;;;5033184;28;20441;-71
2022/07/28 09:40:40;;;;;;;1.48;1.00;;;25.00;65.20;;;;;;5032383;28;20265;-71
2022/07/28 09:43:08;;;;;;;5.38;1.00;;;25.10;65.50;;;;;;5032388;28;20226;-70
2022/07/28 09:45:35;;;;;;;2.05;1.08;;;25.20;65.80;;;;;;5032132;28;20216;-70
2022/07/28 09:48:12;;;;;;;3.22;1.20;;;25.50;67.10;;;;;;5031126;28;20206;-70
2022/07/28 09:50:41;;;;;;;3.15;1.20;;;25.70;66.00;;;;;;5033552;28;20202;-70
2022/07/28 09:53:22;;;;;;;2.83;1.10;;;25.90;65.90;;;;;;5033212;28;20199;-71
2022/07/28 09:55:58;;;;;;;6.45;1.73;;;26.10;65.60;;;;;;5028203;28;20249;-70
2022/07/28 09:58:28;;;;;;;3.90;1.55;;;26.30;65.60;;;;;;5031760;28;20289;-73
2022/07/28 10:01:06;;;;;;;2.78;1.13;;;26.50;64.40;;;;;;5032213;28;20239;-70
2022/07/28 10:03:33;;;;;;;3.10;1.20;;;26.60;63.80;;;;;;5032808;28;20230;-70
2022/07/28 10:06:03;;;;;;;4.85;1.30;;;26.70;63.40;;;;;;5032968;28;20206;-70
2022/07/28 10:08:42;;;;;;;2.00;1.17;;;26.80;62.60;;;;;;5032369;28;20229;-70
2022/07/28 10:11:12;;;;;;;2.17;1.27;;;26.80;61.40;;;;;;5031225;28;20207;-71
2022/07/28 10:14:02;;;;;;;2.28;1.27;;;26.80;61.60;;;;;;5031316;28;20210;-71
2022/07/28 10:16:31;;;;;;;1.88;0.90;;;26.70;61.90;;;;;;5032496;28;20230;-71
2022/07/28 10:19:00;;;;;;;2.55;1.00;;;26.80;62.40;;;;;;5033007;28;20214;-71
2022/07/28 10:21:29;;;;;;;3.83;1.30;;;26.90;62.30;;;;;;5033074;28;20724;-70
2022/07/28 10:23:59;;;;;;;2.85;0.90;;;27.00;62.00;;;;;;5031999;28;20218;-70
2022/07/28 10:26:31;;;;;;;2.58;1.00;;;27.20;61.50;;;;;;5032002;28;20230;-70
2022/07/28 10:29:02;;;;;;;2.03;1.13;;;27.30;60.70;;;;;;5031040;28;20219;-70
2022/07/28 10:31:33;;;;;;;2.45;1.02;;;27.50;60.40;;;;;;5031441;28;20194;-71
2022/07/28 10:34:02;;;;;;;2.95;1.20;;;27.50;59.70;;;;;;5032708;28;20203;-70
2022/07/28 10:36:32;;;;;;;1.42;0.80;;;27.30;59.30;;;;;;5032004;28;20202;-71
2022/07/28 10:39:06;;;;;;;1.55;0.93;;;27.10;59.30;;;;;;5031147;28;20694;-68
2022/07/28 10:41:42;;;;;;;2.88;0.80;;;27.00;59.30;;;;;;5024552;28;20671;-68
2022/07/28 10:44:12;;;;;;;1.33;0.80;;;27.00;59.70;;;;;;5026388;28;20222;-67
2022/07/28 10:46:43;;;;;;;2.22;0.88;;;27.10;59.70;;;;;;5021425;28;20206;-67
2022/07/28 10:49:11;;;;;;;2.88;1.50;;;26.90;59.50;;;;;;5032345;28;20210;-68
2022/07/28 10:51:40;;;;;;;2.58;1.10;;;26.70;59.70;;;;;;5032045;28;20222;-67
2022/07/28 10:54:13;;;;;;;1.88;0.77;;;26.60;60.20;;;;;;5031266;28;20761;-68
2022/07/28 10:57:00;;;;;;;3.70;1.15;;;26.60;60.70;;;;;;5031998;28;20237;-66
2022/07/28 10:59:48;;;;;;;3.30;1.05;;;26.60;60.20;;;;;;5033098;28;20638;-73
2022/07/28 11:02:47;;;;;;;3.50;1.20;;;26.60;59.80;;;;;;5033879;28;20238;-71
2022/07/28 11:05:37;;;;;;;2.35;0.82;;;26.60;59.80;;;;;;5031268;28;20260;-70
2022/07/28 11:08:09;;;;;;;2.90;1.23;;;26.70;59.90;;;;;;5032693;28;20211;-72
2022/07/28 11:10:45;;;;;;;2.22;1.20;;;26.90;60.00;;;;;;5029146;28;20579;-72
2022/07/28 11:13:25;;;;;;;1.05;0.63;;;27.10;59.40;;;;;;5031271;28;20215;-71
2022/07/28 11:15:52;;;;;;;2.67;1.08;;;27.40;58.80;;;;;;5031940;28;20218;-70
2022/07/28 11:18:19;;;;;;;4.47;1.23;;;27.50;58.20;;;;;;5032153;28;20577;-71
2022/07/28 11:21:06;;;;;;;1.65;0.80;;;27.60;57.80;;;;;;5033082;28;20215;-71
2022/07/28 11:23:53;;;;;;;1.48;1.00;;;27.70;57.70;;;;;;5024618;28;20222;-71
2022/07/28 11:26:38;;;;;;;2.67;1.00;;;27.80;57.80;;;;;;5030231;28;20223;-71
2022/07/28 11:29:21;;;;;;;2.95;1.15;;;28.00;57.50;;;;;;5031827;28;20666;-70
2022/07/28 11:32:04;;;;;;;2.15;1.00;;;28.30;57.10;;;;;;5031691;28;20206;-72
2022/07/28 11:35:08;;;;;;;1.70;1.00;;;28.40;56.50;;;;;;5032130;28;20210;-71
2022/07/28 11:38:12;;;;;;;1.60;0.90;;;28.40;56.90;;;;;;5029226;28;20551;-71
2022/07/28 11:40:41;;;;;;;1.58;0.60;;;28.50;56.60;;;;;;5024044;28;20289;-72
2022/07/28 11:43:30;;;;;;;1.73;0.75;;;28.70;56.30;;;;;;5031875;28;20206;-71
2022/07/28 11:46:33;;;;;;;4.25;1.05;;;28.90;55.40;;;;;;5030555;28;20207;-71
2022/07/28 11:49:20;;;;;;;2.05;0.80;;;28.80;55.00;;;;;;5033654;28;20229;-71
2022/07/28 11:52:27;;;;;;;2.00;0.90;;;28.80;55.30;;;;;;5025841;28;20214;-69
2022/07/28 11:54:56;;;;;;;1.33;0.80;;;28.90;55.40;;;;;;5033733;28;20234;-70
2022/07/28 11:57:27;;;;;;;5.72;1.05;;;28.90;55.60;;;;;;5034643;28;20635;-71
2022/07/28 11:59:59;;;;;;;2.60;1.15;;;28.90;55.60;;;;;;5035189;28;20202;-69
2022/07/28 12:02:30;;;;;;;1.55;1.10;;;29.00;55.60;;;;;;5033738;28;20198;-70
2022/07/28 12:04:59;;;;;;;2.78;0.95;;;29.20;55.20;;;;;;5030631;28;20206;-71
2022/07/28 12:07:38;;;;;;;1.95;0.90;;;29.30;54.90;;;;;;5031474;28;20207;-69
2022/07/28 12:10:25;;;;;;;3.38;0.95;;;29.40;54.50;;;;;;5033318;28;20202;-69
2022/07/28 12:12:53;;;;;;;3.15;0.80;;;29.60;54.20;;;;;;5034849;28;20203;-69
2022/07/28 12:15:21;;;;;;;1.60;0.65;;;29.60;54.00;;;;;;5028521;28;20671;-70
2022/07/28 12:17:49;;;;;;;2.25;0.90;;;29.80;53.50;;;;;;5030596;28;20213;-69
2022/07/28 12:20:17;;;;;;;2.08;1.30;;;29.90;53.20;;;;;;5031068;28;20205;-70
2022/07/28 12:22:55;;;;;;;2.40;1.83;;;30.00;53.10;;;;;;5034485;28;20210;-74
2022/07/28 12:25:22;;;;;;;1.95;0.70;;;30.10;52.60;;;;;;5035694;28;20237;-70
2022/07/28 12:27:49;;;;;;;6.32;1.00;;;30.10;52.20;;;;;;5035210;28;20211;-70
2022/07/28 12:30:21;;;;;;;1.13;1.00;;;30.00;51.90;;;;;;5034551;28;20206;-69
2022/07/28 12:32:50;;;;;;;2.53;0.75;;;30.00;52.10;;;;;;5033678;28;20203;-69
2022/07/28 12:35:17;;;;;;;1.25;0.80;;;30.00;52.30;;;;;;5034889;28;20206;-70
2022/07/28 12:37:46;;;;;;;1.40;0.88;;;29.90;52.50;;;;;;5033264;28;20207;-69
2022/07/28 12:40:14;;;;;;;4.13;0.90;;;30.10;52.40;;;;;;5034051;28;20214;-69
2022/07/28 12:42:41;;;;;;;3.85;1.02;;;30.20;52.10;;;;;;5034604;28;20211;-70
2022/07/28 12:45:09;;;;;;;1.90;0.80;;;30.20;51.60;;;;;;5033947;28;20227;-71
2022/07/28 12:47:37;;;;;;;2.40;0.82;;;30.10;51.50;;;;;;5030394;28;20222;-70
2022/07/28 12:50:16;;;;;;;3.95;1.20;;;30.00;51.80;;;;;;5033126;28;20209;-71
2022/07/28 12:52:44;;;;;;;1.48;1.08;;;29.90;52.10;;;;;;5028801;28;20475;-70
2022/07/28 12:55:22;;;;;;;2.90;0.90;;;29.80;52.30;;;;;;5033906;28;20233;-70
2022/07/28 12:57:51;;;;;;;1.52;0.90;;;29.80;52.30;;;;;;5027488;28;20222;-71
2022/07/28 13:00:20;;;;;;;1.45;0.77;;;29.80;52.40;;;;;;5035411;28;20215;-71
2022/07/28 13:02:48;;;;;;;2.67;0.80;;;29.80;52.10;;;;;;5036896;28;20206;-71
2022/07/28 13:06:01;;;;;;;1.90;0.75;;;29.70;52.20;;;;;;5036841;28;20683;-71